createdAt,value
2023-02-17T00:06:57.524Z,30.73
2023-02-17T00:14:00.603Z,29.55
2023-02-17T00:21:12.305Z,33.35
2023-02-17T00:28:14.428Z,32.65
2023-02-17T00:35:16.636Z,32.08
2023-02-17T00:42:18.691Z,34.38
2023-02-17T00:49:23.345Z,36.13
2023-02-17T00:56:25.661Z,36.03
2023-02-17T01:03:28.524Z,30.75
2023-02-17T01:10:30.597Z,31.60
2023-02-17T01:17:32.558Z,28.52
2023-02-17T01:24:34.782Z,31.58
2023-02-17T01:31:37.190Z,31.83
2023-02-17T01:38:39.768Z,31.38
2023-02-17T01:45:51.495Z,31.85
2023-02-17T01:52:55.051Z,30.83
2023-02-17T01:59:57.149Z,31.38
2023-02-17T02:06:59.499Z,29.33
2023-02-17T02:14:02.477Z,33.17
2023-02-17T02:21:41.997Z,33.67
2023-02-17T02:29:02.160Z,32.70
2023-02-17T02:36:21.769Z,31.70
2023-02-17T02:43:24.562Z,34.67
2023-02-17T02:51:03.440Z,33.60
2023-02-17T02:58:19.041Z,37.10
2023-02-17T03:05:39.761Z,38.17
2023-02-17T03:12:42.426Z,34.15
2023-02-17T03:19:46.448Z,35.03
2023-02-17T03:26:48.393Z,34.22
2023-02-17T03:33:50.698Z,36.33
2023-02-17T03:40:54.001Z,32.45
2023-02-17T03:47:56.049Z,32.05
2023-02-17T03:54:58.867Z,33.00
2023-02-17T04:02:00.955Z,37.55
2023-02-17T04:09:03.184Z,37.25
2023-02-17T04:16:06.226Z,37.63
2023-02-17T04:23:08.792Z,39.17
2023-02-17T04:30:12.417Z,37.17
2023-02-17T04:37:14.555Z,36.78
2023-02-17T04:44:16.511Z,35.42
2023-02-17T04:51:18.538Z,43.42
2023-02-17T04:58:20.966Z,39.75
2023-02-17T05:05:23.079Z,37.78
2023-02-17T05:12:25.227Z,35.03
2023-02-17T05:19:27.273Z,34.78
2023-02-17T05:26:29.230Z,38.45
2023-02-17T05:33:31.295Z,36.55
2023-02-17T05:40:33.511Z,35.42
2023-02-17T05:47:38.688Z,37.58
2023-02-17T05:54:40.732Z,35.65
2023-02-17T06:01:42.823Z,36.88
2023-02-17T06:08:44.862Z,38.25
2023-02-17T06:15:47.504Z,33.88
2023-02-17T06:22:49.425Z,41.38
2023-02-17T06:29:51.560Z,34.47
2023-02-17T06:36:53.927Z,31.00
2023-02-17T06:43:55.873Z,34.83
2023-02-17T06:50:57.951Z,25.13
2023-02-17T06:57:59.921Z,36.38
2023-02-17T07:05:02.099Z,34.95
2023-02-17T07:12:04.320Z,37.42
2023-02-17T07:19:06.284Z,35.65
2023-02-17T07:26:10.904Z,33.72
2023-02-17T07:33:12.883Z,34.42
2023-02-17T07:40:15.018Z,37.05
2023-02-17T07:47:16.965Z,33.78
2023-02-17T07:54:19.277Z,34.83
2023-02-17T08:01:23.577Z,29.17
2023-02-17T08:08:44.989Z,33.75
2023-02-17T08:15:52.163Z,32.42
2023-02-17T08:22:54.982Z,41.17
2023-02-17T08:29:57.069Z,34.03
2023-02-17T08:36:59.165Z,39.25
2023-02-17T08:44:03.263Z,36.42
2023-02-17T08:51:06.062Z,31.75
2023-02-17T08:58:08.205Z,27.92
2023-02-17T09:05:10.932Z,34.95
2023-02-17T09:12:12.940Z,34.70
2023-02-17T09:19:15.020Z,32.85
2023-02-17T09:26:18.581Z,34.13
2023-02-17T09:33:20.570Z,39.05
2023-02-17T09:40:39.420Z,22.67
2023-02-17T09:47:46.150Z,26.60
2023-02-17T09:55:04.929Z,32.30
2023-02-17T10:02:15.434Z,34.20
2023-02-17T10:09:27.738Z,34.03
2023-02-17T10:16:36.413Z,35.40
2023-02-17T10:23:38.949Z,28.07
2023-02-17T10:30:45.382Z,21.23
2023-02-17T10:38:04.740Z,31.52
2023-02-17T10:45:13.105Z,35.80
2023-02-17T10:52:18.892Z,23.40
2023-02-17T10:59:23.640Z,35.85
2023-02-17T11:06:26.504Z,28.52
2023-02-17T11:13:42.739Z,19.50
2023-02-17T11:20:44.777Z,29.95
2023-02-17T11:27:52.077Z,16.23
2023-02-17T11:34:58.832Z,29.20
2023-02-17T11:42:00.873Z,28.73
2023-02-17T11:49:27.925Z,33.55
2023-02-17T11:56:34.900Z,30.13
2023-02-17T12:04:18.150Z,20.63
2023-02-17T12:11:34.697Z,25.15
2023-02-17T12:18:58.321Z,29.60
2023-02-17T12:26:10.357Z,28.60
2023-02-17T12:33:34.077Z,29.75
2023-02-17T12:40:45.443Z,30.15
2023-02-17T12:48:13.470Z,28.05
2023-02-17T12:55:21.391Z,22.63
2023-02-17T13:02:25.210Z,27.85
2023-02-17T13:09:30.326Z,27.13
2023-02-17T13:16:45.042Z,25.20
2023-02-17T13:24:01.724Z,15.10
2023-02-17T13:31:30.221Z,26.00
2023-02-17T13:38:33.397Z,21.95
2023-02-17T13:45:41.371Z,19.10
2023-02-17T13:52:43.909Z,14.63
2023-02-17T13:59:46.080Z,19.40
2023-02-17T14:06:50.287Z,27.17
2023-02-17T14:13:55.136Z,25.73
2023-02-17T14:21:40.188Z,25.67
2023-02-17T14:28:53.303Z,23.15
2023-02-17T14:36:04.769Z,20.35
2023-02-17T14:43:06.907Z,22.58
2023-02-17T14:50:10.045Z,21.25
2023-02-17T14:57:14.342Z,21.20
2023-02-17T15:04:16.603Z,20.13
2023-02-17T15:11:31.022Z,18.98
2023-02-17T15:18:33.457Z,13.95
2023-02-17T15:25:35.925Z,11.35
2023-02-17T15:32:38.910Z,14.05
2023-02-17T15:39:40.951Z,15.57
2023-02-17T15:46:45.413Z,15.55
2023-02-17T15:53:48.816Z,14.60
2023-02-17T16:00:51.485Z,13.18
2023-02-17T16:07:55.314Z,14.40
2023-02-17T16:15:00.467Z,16.10
2023-02-17T16:22:04.044Z,14.50
2023-02-17T16:29:21.443Z,15.23
2023-02-17T16:36:23.789Z,15.23
2023-02-17T16:43:31.836Z,19.15
2023-02-17T16:50:39.225Z,13.13
2023-02-17T16:57:43.443Z,11.73
2023-02-17T17:04:52.391Z,13.55
2023-02-17T17:11:57.642Z,9.20
2023-02-17T17:19:03.185Z,13.52
2023-02-17T17:26:19.888Z,9.68
2023-02-17T17:33:22.904Z,15.63
2023-02-17T17:40:29.417Z,13.52
2023-02-17T17:47:32.386Z,10.73
2023-02-17T17:54:38.253Z,4.72
2023-02-17T18:01:45.735Z,11.73
2023-02-17T18:08:53.748Z,7.10
2023-02-17T18:15:57.729Z,10.32
2023-02-17T18:23:01.501Z,7.53
2023-02-17T18:30:05.416Z,9.68
2023-02-17T18:37:08.678Z,8.73
2023-02-17T18:44:14.542Z,10.13
2023-02-17T18:51:20.006Z,7.95
2023-02-17T18:58:23.995Z,7.88
2023-02-17T19:05:30.207Z,9.43
2023-02-17T19:12:34.530Z,4.82
2023-02-17T19:19:44.516Z,12.45
2023-02-17T19:26:48.656Z,9.50
2023-02-17T19:33:55.736Z,8.13
2023-02-17T19:41:03.957Z,6.32
2023-02-17T19:48:09.288Z,8.07
2023-02-17T19:55:14.037Z,12.50
2023-02-17T20:02:18.089Z,7.93
2023-02-17T20:09:23.516Z,3.22
2023-02-17T20:16:30.945Z,8.25
2023-02-17T20:23:35.651Z,7.63
2023-02-17T20:30:43.791Z,5.47
2023-02-17T20:37:46.652Z,5.82
2023-02-17T20:44:51.185Z,6.63
2023-02-17T20:51:56.348Z,4.38
2023-02-17T20:58:59.498Z,7.32
2023-02-17T21:06:07.258Z,6.78
2023-02-17T21:13:10.065Z,6.70
2023-02-17T21:20:17.318Z,3.80
2023-02-17T21:27:24.355Z,10.60
2023-02-17T21:34:26.689Z,5.95
2023-02-17T21:41:30.557Z,4.15
2023-02-17T21:48:32.602Z,4.05
2023-02-17T21:55:34.602Z,3.15
2023-02-17T22:02:37.030Z,2.33
2023-02-17T22:09:39.160Z,3.13
2023-02-17T22:16:41.596Z,3.38
2023-02-17T22:23:44.328Z,3.00
2023-02-17T22:30:53.399Z,2.67
2023-02-17T22:37:57.833Z,3.28
2023-02-17T22:44:59.796Z,1.85
2023-02-17T22:52:01.869Z,3.03
2023-02-17T22:59:05.846Z,2.30
2023-02-17T23:06:11.681Z,2.42
2023-02-17T23:13:13.725Z,2.70
2023-02-17T23:20:15.883Z,2.42
2023-02-17T23:27:17.880Z,2.47
2023-02-17T23:34:20.153Z,2.35
2023-02-17T23:41:22.426Z,2.58
2023-02-17T23:48:24.497Z,2.72
2023-02-17T23:55:26.731Z,2.45
